CGH weather

Congonhas Airport
São Paulo, São Paulo, Brazil

Public forecast

Using degrees Celsius for public forecast. Weather courtesy of forecast.io.

Current aviation weather report (METAR) for Congonhas Airport

Retrieved 2020/06/05 16:00 UTC (35 minutes ago):

SBSP 051600Z 07006KT 020V110 7000 SCT015 BKN100 21/16 Q1024

Aviation forecast (TAF) for Congonhas Airport

Retrieved 2020/06/05 12:06 UTC (4 hours ago):

TAF TAF SBSP 051000Z 0512/0524 08005KT 7000 SCT007 OVC008 TN18/0512ZTX21/0517Z BECMG 0512/0514 10005KT 8000 BKN017 BECMG 0515/0517 9999 SCT025 BECMG 0522/0524 07005KT CAVOK RMK PHH